Time;durP1;ratioP1;P1;durP2;ratioP2;P2;SDS_P1;SDS_P2;PMS_P1;PMS_P2;Temp;Humidity;BMP_temperature;BMP_pressure;BME280_temperature;BME280_humidity;BME280_pressure;Samples;Min_cycle;Max_cycle;Signal;HPM_P1;HPM_P2
2022/10/28 00:00:53;;;;;;;6.77;4.10;;;20.60;59.60;;;;;;5044061;28;20437;-58
2022/10/28 00:03:19;;;;;;;7.23;4.47;;;20.60;59.20;;;;;;5036723;28;20482;-58
2022/10/28 00:05:45;;;;;;;8.77;4.33;;;20.50;59.40;;;;;;5044647;28;20254;-58
2022/10/28 00:08:10;;;;;;;5.80;4.13;;;20.60;59.60;;;;;;5046733;28;20188;-58
2022/10/28 00:10:36;;;;;;;7.43;3.83;;;20.60;59.50;;;;;;5045666;28;20454;-58
2022/10/28 00:13:02;;;;;;;5.03;3.70;;;20.60;59.50;;;;;;5039776;28;20189;-58
2022/10/28 00:15:28;;;;;;;6.30;3.57;;;20.40;59.90;;;;;;5047267;28;20193;-58
2022/10/28 00:17:53;;;;;;;22.27;12.03;;;20.20;60.60;;;;;;5044307;28;20195;-58
2022/10/28 00:20:19;;;;;;;14.93;7.53;;;20.10;61.00;;;;;;5047098;28;20197;-58
2022/10/28 00:22:44;;;;;;;7.93;4.70;;;20.20;60.90;;;;;;5040932;28;20281;-58
2022/10/28 00:25:10;;;;;;;5.47;4.30;;;20.30;60.50;;;;;;5047121;28;20706;-58
2022/10/28 00:27:36;;;;;;;7.60;4.40;;;20.30;60.20;;;;;;5048131;28;20271;-58
2022/10/28 00:30:02;;;;;;;5.70;3.63;;;20.30;59.80;;;;;;5043500;28;20213;-58
2022/10/28 00:32:28;;;;;;;7.50;4.43;;;20.40;60.20;;;;;;5047574;28;20203;-59
2022/10/28 00:34:54;;;;;;;6.30;3.50;;;20.30;59.80;;;;;;5039613;28;20450;-58
2022/10/28 00:37:20;;;;;;;6.67;4.33;;;20.40;59.60;;;;;;5040105;28;20471;-58
2022/10/28 00:39:45;;;;;;;4.20;3.60;;;20.50;59.40;;;;;;5037606;28;20189;-58
2022/10/28 00:42:13;;;;;;;5.83;3.80;;;20.60;59.10;;;;;;5038953;28;20236;-58
2022/10/28 00:44:38;;;;;;;6.20;3.97;;;20.70;59.00;;;;;;5038992;28;20195;-59
2022/10/28 00:47:34;;;;;;;6.10;3.80;;;20.70;58.60;;;;;;5040312;28;20958;-58
2022/10/28 00:50:08;;;;;;;6.73;3.73;;;20.80;58.60;;;;;;5035815;28;20204;-58
2022/10/28 00:52:34;;;;;;;6.63;3.50;;;20.90;58.50;;;;;;5037274;28;20863;-58
2022/10/28 00:55:01;;;;;;;12.67;4.27;;;20.90;58.30;;;;;;5048188;28;20530;-58
2022/10/28 00:57:32;;;;;;;7.13;3.93;;;20.90;58.10;;;;;;5047355;28;20355;-58
2022/10/28 00:59:59;;;;;;;9.00;3.80;;;20.50;58.70;;;;;;5037150;28;20494;-58
2022/10/28 01:02:26;;;;;;;4.87;3.37;;;20.30;59.40;;;;;;5045852;28;20576;-58
2022/10/28 01:04:51;;;;;;;9.37;4.03;;;20.40;59.50;;;;;;5043724;28;21259;-58
2022/10/28 01:07:18;;;;;;;11.73;4.30;;;20.50;59.20;;;;;;5044601;28;20477;-58
2022/10/28 01:09:44;;;;;;;6.20;3.87;;;20.50;59.10;;;;;;5048150;28;20315;-58
2022/10/28 01:12:38;;;;;;;13.40;4.57;;;20.50;58.90;;;;;;5047475;28;21020;-58
2022/10/28 01:15:27;;;;;;;8.70;4.43;;;20.60;58.70;;;;;;5038249;28;20644;-58
2022/10/28 01:18:29;;;;;;;5.60;3.40;;;20.60;58.70;;;;;;5040887;28;20458;-58
2022/10/28 01:21:06;;;;;;;6.93;3.70;;;20.60;58.60;;;;;;5046346;28;20450;-58
2022/10/28 01:24:00;;;;;;;4.73;4.13;;;20.30;59.00;;;;;;5046490;28;20490;-58
2022/10/28 01:26:37;;;;;;;6.83;3.80;;;20.30;59.20;;;;;;5044239;28;20439;-58
2022/10/28 01:29:24;;;;;;;11.27;4.40;;;20.40;59.30;;;;;;5043561;28;20443;-58
2022/10/28 01:32:00;;;;;;;6.77;3.33;;;20.50;59.10;;;;;;5041763;28;20459;-58
2022/10/28 01:34:39;;;;;;;7.83;4.03;;;20.50;58.80;;;;;;5048915;28;20516;-58
2022/10/28 01:37:17;;;;;;;9.67;6.40;;;20.50;59.20;;;;;;5048273;28;20506;-58
2022/10/28 01:39:56;;;;;;;8.13;3.23;;;20.60;58.70;;;;;;5043959;28;20542;-58
2022/10/28 01:42:28;;;;;;;5.87;3.60;;;20.60;58.10;;;;;;5045209;28;20573;-58
2022/10/28 01:45:24;;;;;;;6.10;3.60;;;20.60;58.70;;;;;;5048758;28;20443;-58
2022/10/28 01:47:59;;;;;;;9.43;4.70;;;20.60;58.40;;;;;;5045339;28;20450;-58
2022/10/28 01:50:38;;;;;;;6.97;4.10;;;20.60;58.40;;;;;;5046323;28;20442;-58
2022/10/28 01:53:08;;;;;;;5.17;3.40;;;20.50;58.40;;;;;;5038225;28;20439;-58
2022/10/28 01:55:47;;;;;;;3.70;3.20;;;20.60;58.50;;;;;;5043730;28;20443;-58
2022/10/28 01:58:18;;;;;;;6.03;4.33;;;20.60;58.30;;;;;;5042655;28;20496;-58
2022/10/28 02:00:46;;;;;;;4.50;4.00;;;20.60;58.20;;;;;;5034774;28;20583;-58
2022/10/28 02:03:12;;;;;;;7.80;4.20;;;20.60;58.30;;;;;;5042987;28;20509;-58
2022/10/28 02:05:38;;;;;;;8.00;4.00;;;20.60;58.60;;;;;;5047673;28;20431;-58
2022/10/28 02:08:11;;;;;;;6.30;4.30;;;20.70;58.20;;;;;;5046160;28;20293;-58
2022/10/28 02:10:41;;;;;;;7.30;3.97;;;20.70;57.90;;;;;;5046444;28;20946;-58
2022/10/28 02:13:13;;;;;;;4.50;3.27;;;20.70;57.80;;;;;;5053280;28;20836;-58
2022/10/28 02:15:49;;;;;;;8.33;4.20;;;20.60;57.90;;;;;;5042767;28;20442;-58
2022/10/28 02:18:30;;;;;;;5.73;3.67;;;20.60;58.00;;;;;;5050252;28;20549;-58
2022/10/28 02:21:19;;;;;;;6.33;4.00;;;20.50;57.90;;;;;;5048607;28;20446;-58
2022/10/28 02:23:55;;;;;;;7.10;4.10;;;20.40;58.50;;;;;;5046886;28;20905;-58
2022/10/28 02:26:30;;;;;;;6.47;3.70;;;20.40;58.70;;;;;;5042242;28;20486;-58
2022/10/28 02:29:31;;;;;;;3.77;3.47;;;20.30;58.90;;;;;;5041405;28;20841;-58
2022/10/28 02:32:04;;;;;;;8.30;4.10;;;20.30;58.90;;;;;;5041628;28;20883;-58
2022/10/28 02:34:39;;;;;;;4.70;3.57;;;20.10;59.20;;;;;;5046557;28;20459;-58
2022/10/28 02:37:09;;;;;;;6.83;4.33;;;19.60;59.80;;;;;;5051121;28;20478;-58
2022/10/28 02:39:40;;;;;;;6.00;3.70;;;19.30;62.40;;;;;;5049601;28;20549;-58
2022/10/28 02:42:14;;;;;;;8.93;3.57;;;19.40;62.10;;;;;;5046627;28;21658;-58
2022/10/28 02:44:51;;;;;;;9.13;4.27;;;19.30;62.40;;;;;;5044649;28;20500;-58
2022/10/28 02:47:21;;;;;;;6.73;3.97;;;19.30;62.50;;;;;;5044646;28;20442;-58
2022/10/28 02:49:52;;;;;;;7.90;3.80;;;19.40;62.00;;;;;;5042111;28;20532;-58
2022/10/28 02:52:20;;;;;;;4.10;3.43;;;19.30;62.40;;;;;;5045698;28;20445;-58
2022/10/28 02:54:58;;;;;;;5.93;3.80;;;19.40;62.20;;;;;;5044845;28;22525;-58
2022/10/28 02:57:26;;;;;;;13.57;3.90;;;19.30;63.30;;;;;;5045572;28;20442;-58
2022/10/28 02:59:55;;;;;;;5.37;4.00;;;19.00;62.50;;;;;;5041848;28;20850;-58
2022/10/28 03:02:21;;;;;;;9.03;3.90;;;19.10;62.30;;;;;;5045282;28;20498;-58
2022/10/28 03:04:46;;;;;;;5.27;3.77;;;19.00;63.60;;;;;;5037864;28;20471;-58
2022/10/28 03:07:12;;;;;;;12.03;3.73;;;19.10;62.90;;;;;;5042757;28;20478;-58
2022/10/28 03:09:38;;;;;;;7.60;3.63;;;19.20;61.80;;;;;;5045002;28;20216;-58
2022/10/28 03:12:04;;;;;;;8.03;4.30;;;19.20;62.30;;;;;;5048879;28;20193;-58
2022/10/28 03:14:29;;;;;;;6.20;4.00;;;19.20;62.70;;;;;;5040987;28;20212;-58
2022/10/28 03:16:55;;;;;;;6.73;4.33;;;19.10;62.50;;;;;;5047328;28;20799;-58
2022/10/28 03:19:20;;;;;;;5.70;3.80;;;19.00;63.40;;;;;;5047102;28;20263;-58
2022/10/28 03:21:46;;;;;;;9.13;4.10;;;19.00;62.90;;;;;;5045176;28;20201;-58
2022/10/28 03:24:11;;;;;;;14.80;5.07;;;19.00;63.20;;;;;;5044235;28;20283;-58
2022/10/28 03:26:37;;;;;;;8.93;3.80;;;18.80;63.60;;;;;;5045424;28;20224;-58
2022/10/28 03:29:03;;;;;;;6.90;4.50;;;18.80;64.10;;;;;;5041701;28;20208;-58
2022/10/28 03:31:28;;;;;;;6.93;4.17;;;18.70;63.40;;;;;;5040954;28;20668;-58
2022/10/28 03:33:54;;;;;;;6.73;3.83;;;18.60;64.90;;;;;;5042237;28;20246;-58
2022/10/28 03:36:19;;;;;;;5.50;3.73;;;18.60;64.30;;;;;;5043312;28;20200;-58
2022/10/28 03:38:45;;;;;;;5.90;3.83;;;18.70;65.00;;;;;;5045394;28;20200;-58
2022/10/28 03:41:10;;;;;;;6.17;4.00;;;18.60;64.40;;;;;;5048752;28;20197;-58
2022/10/28 03:43:36;;;;;;;11.20;4.20;;;18.50;65.40;;;;;;5045482;28;20226;-58
2022/10/28 03:46:02;;;;;;;5.47;3.70;;;18.50;64.80;;;;;;5045255;28;20197;-57
2022/10/28 03:48:27;;;;;;;6.17;3.80;;;18.30;66.00;;;;;;5047508;28;20215;-58
2022/10/28 03:50:54;;;;;;;16.07;4.53;;;18.30;65.30;;;;;;5047942;28;20189;-58
2022/10/28 03:53:20;;;;;;;5.60;4.30;;;18.60;66.30;;;;;;5047144;28;20212;-57
2022/10/28 03:55:56;;;;;;;7.53;3.93;;;18.90;64.00;;;;;;5045357;28;20938;-57
2022/10/28 03:58:22;;;;;;;9.40;3.80;;;19.00;62.60;;;;;;5043670;28;20545;-57
2022/10/28 04:00:48;;;;;;;11.07;3.47;;;19.10;62.20;;;;;;5044058;28;20534;-57
2022/10/28 04:03:18;;;;;;;10.03;4.27;;;19.10;61.90;;;;;;5046895;28;20220;-57
2022/10/28 04:05:44;;;;;;;6.40;4.00;;;19.20;61.80;;;;;;5050574;28;20954;-58
2022/10/28 04:08:10;;;;;;;7.97;3.60;;;19.20;61.50;;;;;;5048921;28;20443;-57
2022/10/28 04:10:36;;;;;;;6.27;3.90;;;19.30;61.50;;;;;;5042254;28;20662;-57
2022/10/28 04:13:04;;;;;;;7.90;4.20;;;18.90;62.40;;;;;;5048462;28;20195;-57
2022/10/28 04:15:30;;;;;;;5.40;3.97;;;18.40;63.90;;;;;;5047265;28;20193;-57
2022/10/28 04:17:56;;;;;;;5.57;4.00;;;17.60;67.10;;;;;;5043637;28;20442;-57
2022/10/28 04:20:23;;;;;;;6.93;4.20;;;17.40;69.00;;;;;;5044489;28;20483;-57
2022/10/28 04:22:49;;;;;;;10.03;4.10;;;17.20;70.40;;;;;;5043998;28;20491;-57
2022/10/28 04:25:14;;;;;;;6.90;4.40;;;17.00;70.70;;;;;;5048034;28;20447;-58
2022/10/28 04:27:42;;;;;;;6.80;3.50;;;17.00;71.70;;;;;;5040303;28;20210;-58
2022/10/28 04:30:08;;;;;;;5.73;4.30;;;17.10;70.90;;;;;;5042206;28;20656;-58
2022/10/28 04:32:33;;;;;;;7.47;4.33;;;17.20;70.60;;;;;;5041762;28;20447;-58
2022/10/28 04:34:59;;;;;;;8.00;3.80;;;17.40;70.00;;;;;;5041323;28;20439;-58
2022/10/28 04:37:25;;;;;;;6.57;3.90;;;17.50;69.40;;;;;;5043846;28;20659;-58
2022/10/28 04:39:50;;;;;;;7.60;4.67;;;17.60;69.10;;;;;;5040984;28;20712;-57
2022/10/28 04:42:16;;;;;;;7.50;4.33;;;17.60;68.50;;;;;;5045333;28;20221;-58
2022/10/28 04:44:41;;;;;;;9.37;4.17;;;17.60;68.60;;;;;;5039413;28;20192;-58
2022/10/28 04:47:07;;;;;;;8.30;4.80;;;17.70;68.50;;;;;;5046226;28;20196;-58
2022/10/28 04:49:32;;;;;;;6.57;4.13;;;17.60;68.90;;;;;;5039048;28;20656;-57
2022/10/28 04:51:58;;;;;;;8.07;4.50;;;17.40;69.10;;;;;;5035819;28;20224;-58
2022/10/28 04:54:23;;;;;;;11.30;4.30;;;17.30;70.00;;;;;;5044337;28;20199;-58
2022/10/28 04:56:49;;;;;;;5.90;3.80;;;17.40;69.90;;;;;;5042917;28;20291;-58
2022/10/28 04:59:15;;;;;;;5.90;4.63;;;17.40;69.70;;;;;;5040901;28;20205;-56
2022/10/28 05:01:40;;;;;;;7.77;5.23;;;17.60;69.10;;;;;;5040641;28;20198;-57
2022/10/28 05:04:06;;;;;;;4.07;3.40;;;17.60;68.90;;;;;;5039576;28;20189;-58
2022/10/28 05:06:31;;;;;;;6.67;4.30;;;17.60;69.00;;;;;;5046087;28;20188;-58
2022/10/28 05:08:57;;;;;;;7.40;3.63;;;17.60;68.70;;;;;;5042278;28;20192;-57
2022/10/28 05:11:23;;;;;;;6.20;4.00;;;17.50;68.70;;;;;;5046035;28;21619;-57
2022/10/28 05:13:48;;;;;;;10.07;4.70;;;17.50;69.10;;;;;;5042852;28;20200;-58
2022/10/28 05:16:14;;;;;;;5.67;4.33;;;17.60;68.80;;;;;;5043064;28;20235;-57
2022/10/28 05:18:39;;;;;;;7.90;4.20;;;17.80;68.10;;;;;;5042872;28;20703;-58
2022/10/28 05:21:05;;;;;;;6.63;3.93;;;17.90;67.80;;;;;;5038874;28;22187;-58
2022/10/28 05:23:30;;;;;;;7.70;3.67;;;18.00;67.60;;;;;;5040855;28;20572;-58
2022/10/28 05:25:56;;;;;;;9.70;3.90;;;18.20;67.60;;;;;;5044642;28;20215;-58
2022/10/28 05:28:22;;;;;;;7.47;4.20;;;18.40;67.10;;;;;;5044612;28;20220;-58
2022/10/28 05:30:47;;;;;;;9.97;4.40;;;18.50;66.70;;;;;;5036955;28;20288;-58
2022/10/28 05:33:13;;;;;;;4.33;3.93;;;18.50;66.80;;;;;;5044272;28;20192;-56
2022/10/28 05:35:39;;;;;;;6.60;3.90;;;18.40;66.90;;;;;;5039929;28;20201;-57
2022/10/28 05:38:05;;;;;;;5.43;3.33;;;18.50;69.20;;;;;;5039905;28;20628;-58
2022/10/28 05:40:32;;;;;;;6.37;3.50;;;18.70;67.00;;;;;;5046024;28;20435;-58
2022/10/28 05:42:59;;;;;;;12.13;4.50;;;18.70;65.40;;;;;;5045743;28;20577;-56
2022/10/28 05:45:24;;;;;;;12.80;4.97;;;18.60;65.10;;;;;;5043863;28;20465;-57
2022/10/28 05:47:50;;;;;;;13.40;4.27;;;18.60;65.00;;;;;;5050583;28;20969;-57
2022/10/28 05:50:18;;;;;;;10.77;5.10;;;18.70;64.90;;;;;;5048372;28;20353;-58
2022/10/28 05:52:48;;;;;;;8.87;4.60;;;19.00;64.40;;;;;;5052850;28;21142;-57
2022/10/28 05:55:15;;;;;;;9.23;4.60;;;19.10;62.60;;;;;;5053314;28;20439;-58
2022/10/28 05:57:40;;;;;;;10.90;4.13;;;19.10;62.70;;;;;;5040014;28;20481;-58
2022/10/28 06:00:07;;;;;;;6.77;3.63;;;19.20;62.10;;;;;;5043935;28;20934;-57
2022/10/28 06:02:32;;;;;;;7.03;4.23;;;19.20;61.90;;;;;;5045197;28;20278;-57
2022/10/28 06:04:58;;;;;;;6.60;3.80;;;18.90;63.30;;;;;;5046030;28;20443;-57
2022/10/28 06:07:23;;;;;;;5.13;4.40;;;18.90;62.50;;;;;;5051543;28;20196;-57
2022/10/28 06:09:49;;;;;;;6.97;4.33;;;18.80;63.40;;;;;;5051180;28;20192;-57
2022/10/28 06:12:16;;;;;;;6.70;3.33;;;18.90;62.90;;;;;;5049691;28;20206;-58
2022/10/28 06:14:41;;;;;;;7.63;3.80;;;19.10;62.30;;;;;;5050764;28;20449;-57
2022/10/28 06:17:07;;;;;;;9.17;4.00;;;19.20;61.60;;;;;;5047247;28;20450;-58
2022/10/28 06:19:33;;;;;;;9.00;4.63;;;19.30;61.20;;;;;;5051624;28;20205;-58
2022/10/28 06:21:58;;;;;;;5.93;3.63;;;19.30;61.10;;;;;;5047252;28;20539;-56
2022/10/28 06:24:24;;;;;;;7.63;4.10;;;19.30;61.00;;;;;;5046193;28;20196;-57
2022/10/28 06:26:49;;;;;;;13.17;3.93;;;19.30;60.90;;;;;;5051047;28;20657;-58
2022/10/28 06:29:15;;;;;;;10.77;3.90;;;19.20;61.20;;;;;;5051291;28;20937;-57
2022/10/28 06:31:41;;;;;;;11.10;3.60;;;19.10;61.70;;;;;;5045979;28;20193;-58
2022/10/28 06:34:08;;;;;;;5.80;3.53;;;19.30;61.60;;;;;;5049751;28;20197;-57
2022/10/28 06:36:34;;;;;;;4.90;3.63;;;19.50;60.70;;;;;;5047884;28;20475;-57
2022/10/28 06:38:59;;;;;;;5.50;3.67;;;19.50;60.00;;;;;;5044540;28;20965;-57
2022/10/28 06:41:25;;;;;;;12.20;4.80;;;19.50;59.80;;;;;;5045594;28;20276;-57
2022/10/28 06:43:50;;;;;;;6.30;4.10;;;19.30;60.90;;;;;;5048279;28;20263;-57
2022/10/28 06:46:16;;;;;;;8.10;4.30;;;19.30;60.80;;;;;;5048127;28;20201;-58
2022/10/28 06:48:42;;;;;;;7.03;3.50;;;19.40;60.90;;;;;;5051433;28;20184;-57
2022/10/28 06:51:07;;;;;;;8.10;3.37;;;19.30;60.50;;;;;;5049755;28;20254;-56
2022/10/28 06:53:33;;;;;;;6.00;3.77;;;19.20;61.30;;;;;;5046522;28;20197;-58
2022/10/28 06:55:58;;;;;;;9.13;3.97;;;19.40;61.70;;;;;;5050694;28;20228;-58
2022/10/28 06:58:24;;;;;;;10.73;3.97;;;19.50;60.60;;;;;;5048943;28;20203;-56
2022/10/28 07:00:50;;;;;;;9.53;3.63;;;19.50;60.50;;;;;;5035634;28;20200;-58
2022/10/28 07:03:17;;;;;;;6.50;3.40;;;19.60;60.30;;;;;;5043202;28;20543;-58
2022/10/28 07:05:45;;;;;;;5.90;3.23;;;19.60;60.30;;;;;;5036800;28;20423;-57
2022/10/28 07:08:11;;;;;;;6.40;4.20;;;19.40;60.90;;;;;;5043341;28;20816;-57
2022/10/28 07:10:36;;;;;;;4.20;3.80;;;19.30;61.10;;;;;;5052436;28;20438;-58
2022/10/28 07:13:02;;;;;;;5.73;3.20;;;19.30;61.30;;;;;;5051107;28;20214;-58
2022/10/28 07:15:28;;;;;;;6.90;3.80;;;19.10;61.90;;;;;;5036961;28;20197;-58
2022/10/28 07:17:58;;;;;;;5.10;3.50;;;19.10;62.40;;;;;;5039638;28;20281;-57
2022/10/28 07:20:25;;;;;;;9.80;4.33;;;19.30;62.00;;;;;;5044521;28;20259;-58
2022/10/28 07:22:56;;;;;;;5.90;3.97;;;19.40;61.20;;;;;;5038328;28;20985;-58
2022/10/28 07:25:22;;;;;;;5.90;3.43;;;19.50;61.00;;;;;;5043298;28;20440;-58
2022/10/28 07:27:47;;;;;;;7.87;3.50;;;19.40;61.00;;;;;;5041441;28;20438;-58
2022/10/28 07:30:13;;;;;;;7.10;4.90;;;19.50;60.40;;;;;;5032723;28;20221;-57
2022/10/28 07:32:39;;;;;;;8.80;4.13;;;19.60;60.40;;;;;;5039684;28;20189;-57
2022/10/28 07:35:05;;;;;;;9.17;3.77;;;19.70;60.00;;;;;;5040773;28;20205;-57
2022/10/28 07:37:30;;;;;;;11.27;3.40;;;19.90;59.40;;;;;;5037946;28;20307;-58
2022/10/28 07:39:56;;;;;;;9.93;3.67;;;20.10;59.00;;;;;;5047671;28;20416;-58
2022/10/28 07:42:21;;;;;;;4.50;3.70;;;20.20;58.80;;;;;;5036576;28;20302;-58
2022/10/28 07:44:47;;;;;;;15.20;6.10;;;20.20;58.80;;;;;;5035104;28;20686;-58
2022/10/28 07:47:12;;;;;;;4.93;3.60;;;20.20;58.70;;;;;;5049630;28;20204;-58
2022/10/28 07:49:38;;;;;;;6.80;4.10;;;20.50;58.40;;;;;;5043891;28;20204;-58
2022/10/28 07:52:03;;;;;;;7.33;3.20;;;20.70;58.00;;;;;;5045229;28;20222;-58
2022/10/28 07:54:30;;;;;;;5.30;3.17;;;20.90;57.60;;;;;;5047432;28;20602;-58
2022/10/28 07:56:56;;;;;;;6.70;3.87;;;21.00;57.20;;;;;;5043483;28;20270;-58
2022/10/28 07:59:23;;;;;;;11.03;3.57;;;21.20;56.80;;;;;;5041466;28;20452;-58
2022/10/28 08:01:49;;;;;;;7.93;3.97;;;21.30;56.90;;;;;;5040084;28;20196;-58
2022/10/28 08:04:15;;;;;;;10.40;4.00;;;21.30;56.70;;;;;;5048085;28;20442;-58
2022/10/28 08:06:41;;;;;;;8.20;4.10;;;21.40;56.70;;;;;;5049572;28;20219;-58
2022/10/28 08:09:07;;;;;;;6.90;4.30;;;21.50;56.70;;;;;;5046009;28;20202;-58
2022/10/28 08:11:32;;;;;;;8.80;3.37;;;21.50;56.70;;;;;;5046015;28;20528;-58
2022/10/28 08:13:58;;;;;;;8.73;4.20;;;21.60;56.80;;;;;;5046111;28;20709;-58
2022/10/28 08:16:24;;;;;;;8.90;5.17;;;21.60;56.80;;;;;;5039341;28;20204;-58
2022/10/28 08:18:49;;;;;;;9.47;4.40;;;21.70;56.70;;;;;;5044650;28;20268;-58
2022/10/28 08:21:15;;;;;;;12.60;4.20;;;21.70;56.60;;;;;;5046810;28;20616;-58
2022/10/28 08:23:45;;;;;;;8.50;3.90;;;21.70;56.60;;;;;;5044334;28;20639;-58
2022/10/28 08:26:12;;;;;;;10.53;6.13;;;21.80;56.50;;;;;;5049057;28;20199;-58
2022/10/28 08:28:38;;;;;;;6.27;3.90;;;21.80;56.50;;;;;;5048501;28;20470;-58
2022/10/28 08:31:07;;;;;;;6.33;4.10;;;21.70;56.80;;;;;;5044480;28;20494;-58
2022/10/28 08:33:37;;;;;;;9.13;4.97;;;21.50;57.10;;;;;;5043691;28;20959;-58
2022/10/28 08:36:03;;;;;;;5.43;3.87;;;21.60;57.20;;;;;;5048076;28;20535;-58
2022/10/28 08:38:28;;;;;;;10.93;4.30;;;21.60;57.10;;;;;;5045675;28;20851;-58
2022/10/28 08:41:11;;;;;;;7.17;4.30;;;21.70;57.00;;;;;;5048079;28;20435;-58
2022/10/28 08:44:18;;;;;;;8.30;4.50;;;21.80;57.00;;;;;;5044909;28;20307;-58
2022/10/28 08:47:11;;;;;;;10.83;4.77;;;21.80;56.80;;;;;;5041899;28;20455;-58
2022/10/28 08:49:39;;;;;;;6.60;4.43;;;21.90;56.90;;;;;;5042806;28;20470;-58
2022/10/28 08:52:27;;;;;;;11.97;5.03;;;21.90;56.70;;;;;;5044413;28;20435;-58
2022/10/28 08:55:04;;;;;;;5.97;4.80;;;22.00;56.70;;;;;;5047999;28;20518;-58
2022/10/28 08:57:40;;;;;;;10.97;4.57;;;22.00;56.50;;;;;;5042976;28;20504;-58
2022/10/28 09:00:15;;;;;;;8.73;4.70;;;22.00;56.60;;;;;;5042490;28;20452;-58
2022/10/28 09:02:50;;;;;;;8.10;4.30;;;22.10;56.70;;;;;;5042064;28;20896;-58
2022/10/28 09:05:21;;;;;;;6.17;4.83;;;22.00;57.00;;;;;;5043739;28;20553;-58
2022/10/28 09:07:47;;;;;;;7.23;5.07;;;22.10;57.00;;;;;;5044520;28;20447;-58
2022/10/28 09:10:15;;;;;;;8.57;4.73;;;22.10;56.90;;;;;;5037912;28;20426;-59
2022/10/28 09:12:50;;;;;;;7.00;4.53;;;22.20;56.90;;;;;;5046876;28;20512;-58
2022/10/28 09:15:28;;;;;;;9.00;4.03;;;22.20;56.90;;;;;;5045904;28;20450;-58
2022/10/28 09:18:10;;;;;;;5.77;4.50;;;22.20;56.90;;;;;;5047912;28;20453;-58
2022/10/28 09:20:41;;;;;;;6.60;4.03;;;22.30;57.00;;;;;;5048977;28;20520;-58
2022/10/28 09:23:18;;;;;;;6.40;4.37;;;22.30;56.90;;;;;;5050708;28;20976;-59
2022/10/28 09:26:16;;;;;;;5.90;4.43;;;22.40;56.70;;;;;;5041698;28;20451;-59
2022/10/28 09:28:55;;;;;;;6.10;3.73;;;22.50;56.70;;;;;;5048393;28;20521;-59
2022/10/28 09:31:21;;;;;;;11.93;4.60;;;22.60;56.60;;;;;;5047072;28;20811;-58
2022/10/28 09:34:01;;;;;;;7.00;4.20;;;22.50;55.80;;;;;;5053064;28;20503;-58
2022/10/28 09:36:35;;;;;;;6.40;4.37;;;22.60;56.10;;;;;;5050587;28;20290;-59
2022/10/28 09:39:04;;;;;;;7.93;4.90;;;22.70;56.10;;;;;;5049868;28;20459;-59
2022/10/28 09:41:40;;;;;;;8.33;4.10;;;22.70;56.20;;;;;;5051471;28;20451;-59
2022/10/28 09:44:18;;;;;;;9.20;4.80;;;22.70;56.30;;;;;;5051064;28;20888;-59
2022/10/28 09:46:47;;;;;;;6.90;3.83;;;22.60;56.60;;;;;;5047170;28;20566;-58
2022/10/28 09:49:19;;;;;;;6.30;3.67;;;22.50;56.90;;;;;;5044259;28;21368;-59
2022/10/28 09:52:08;;;;;;;6.37;3.70;;;22.10;58.50;;;;;;5050543;28;20501;-58
2022/10/28 09:54:37;;;;;;;9.83;4.30;;;21.70;59.10;;;;;;5048482;28;20451;-59
2022/10/28 09:57:03;;;;;;;3.90;3.10;;;21.50;59.40;;;;;;5050586;28;20547;-58
2022/10/28 09:59:29;;;;;;;4.13;3.47;;;21.40;59.20;;;;;;5038881;28;20479;-58
2022/10/28 10:01:55;;;;;;;9.27;3.50;;;21.20;59.20;;;;;;5050054;28;20475;-59
2022/10/28 10:04:26;;;;;;;5.90;2.90;;;21.20;59.10;;;;;;5047699;28;20443;-59
2022/10/28 10:07:02;;;;;;;6.57;3.93;;;21.30;59.10;;;;;;5053022;28;20308;-58
2022/10/28 10:09:31;;;;;;;8.87;4.00;;;21.40;59.20;;;;;;5037203;28;20443;-59
2022/10/28 10:12:06;;;;;;;9.60;3.77;;;21.40;59.30;;;;;;5050456;28;20447;-59
2022/10/28 10:14:48;;;;;;;9.17;3.83;;;21.70;59.10;;;;;;5043762;28;20469;-59
2022/10/28 10:17:18;;;;;;;9.13;3.27;;;22.20;58.30;;;;;;5017706;28;20466;-59
2022/10/28 10:20:07;;;;;;;5.10;3.00;;;22.40;57.20;;;;;;5049925;28;20462;-59
2022/10/28 10:22:39;;;;;;;10.80;3.70;;;22.60;55.80;;;;;;5049915;28;20896;-59
2022/10/28 10:25:17;;;;;;;7.43;3.27;;;22.70;55.40;;;;;;5048721;28;20812;-59
2022/10/28 10:28:02;;;;;;;5.40;3.00;;;22.90;55.60;;;;;;5050173;28;20973;-59
2022/10/28 10:30:38;;;;;;;7.30;3.47;;;23.20;54.80;;;;;;5049042;28;20450;-59
2022/10/28 10:33:06;;;;;;;6.83;3.20;;;23.40;54.40;;;;;;5049056;28;20802;-59
2022/10/28 10:35:34;;;;;;;5.00;2.90;;;23.70;53.50;;;;;;5052137;28;20445;-59
2022/10/28 10:38:03;;;;;;;6.47;3.20;;;24.10;52.90;;;;;;5046532;28;20550;-59
2022/10/28 10:40:32;;;;;;;8.60;3.50;;;24.30;52.80;;;;;;5047587;28;20435;-59
2022/10/28 10:43:21;;;;;;;4.87;2.80;;;24.50;53.00;;;;;;5045599;28;20490;-59
2022/10/28 10:45:52;;;;;;;6.53;3.07;;;24.70;53.20;;;;;;5036152;28;20529;-59
2022/10/28 10:48:18;;;;;;;10.33;3.30;;;24.60;53.10;;;;;;5049552;28;20512;-59
2022/10/28 10:50:46;;;;;;;3.17;2.63;;;24.70;53.10;;;;;;5030654;28;20957;-60
2022/10/28 10:53:31;;;;;;;7.50;3.27;;;24.70;52.50;;;;;;5049603;28;20189;-59
2022/10/28 10:56:09;;;;;;;5.00;2.63;;;24.90;52.00;;;;;;5047545;28;20526;-59
2022/10/28 10:58:39;;;;;;;7.00;3.60;;;24.90;51.60;;;;;;5047841;28;20455;-59
2022/10/28 11:01:07;;;;;;;6.40;3.50;;;24.90;51.30;;;;;;5046825;28;20451;-59
2022/10/28 11:03:37;;;;;;;7.40;3.63;;;24.80;52.70;;;;;;5048268;28;20486;-59
2022/10/28 11:06:06;;;;;;;10.13;4.80;;;24.60;53.50;;;;;;5046006;28;21122;-59
2022/10/28 11:08:43;;;;;;;6.80;3.50;;;24.60;54.10;;;;;;5045456;28;20438;-59
2022/10/28 11:11:18;;;;;;;5.07;3.73;;;24.70;53.10;;;;;;5042094;28;20516;-59
2022/10/28 11:13:45;;;;;;;7.83;3.20;;;24.90;53.10;;;;;;5041289;28;20484;-59
2022/10/28 11:16:22;;;;;;;7.50;2.93;;;25.10;52.30;;;;;;5043427;28;20817;-59
2022/10/28 11:18:51;;;;;;;6.10;3.90;;;25.20;53.00;;;;;;5048284;28;20447;-59
2022/10/28 11:21:49;;;;;;;6.47;3.50;;;25.30;52.70;;;;;;5049557;28;20443;-59
2022/10/28 11:24:20;;;;;;;5.97;3.30;;;25.40;52.70;;;;;;5046911;28;20929;-59
2022/10/28 11:26:54;;;;;;;9.80;3.70;;;25.40;53.80;;;;;;5045779;28;20439;-59
2022/10/28 11:29:20;;;;;;;10.10;3.30;;;25.50;52.80;;;;;;5045129;28;20447;-59
2022/10/28 11:31:46;;;;;;;6.73;4.00;;;25.50;49.90;;;;;;5046601;28;20443;-59
2022/10/28 11:34:30;;;;;;;7.77;3.40;;;25.40;49.30;;;;;;5045544;28;20197;-59
2022/10/28 11:37:30;;;;;;;7.50;3.03;;;25.50;49.70;;;;;;5047969;28;20470;-59
2022/10/28 11:40:31;;;;;;;6.13;3.50;;;25.60;50.00;;;;;;5044242;28;20436;-59
2022/10/28 11:43:05;;;;;;;4.43;3.20;;;25.60;50.60;;;;;;5002504;28;20628;-59
2022/10/28 11:45:45;;;;;;;5.83;4.10;;;25.50;51.60;;;;;;5048057;28;20496;-59
2022/10/28 11:48:19;;;;;;;8.17;3.73;;;25.20;52.70;;;;;;5045844;28;20446;-59
2022/10/28 11:51:06;;;;;;;5.93;3.37;;;25.30;53.10;;;;;;5047340;28;20463;-59
2022/10/28 11:53:59;;;;;;;7.67;3.73;;;25.50;53.10;;;;;;5049065;28;20482;-59
2022/10/28 11:56:48;;;;;;;4.93;3.77;;;25.60;53.20;;;;;;5047189;28;20449;-59
2022/10/28 11:59:38;;;;;;;5.67;3.00;;;25.60;52.30;;;;;;5042712;28;20498;-59
2022/10/28 12:02:40;;;;;;;10.10;3.20;;;25.60;51.80;;;;;;5046711;28;22316;-59
2022/10/28 12:05:34;;;;;;;6.60;3.07;;;25.70;51.10;;;;;;5047304;28;20473;-59
2022/10/28 12:08:37;;;;;;;8.00;3.30;;;25.40;51.10;;;;;;5025288;28;20820;-59
2022/10/28 12:11:26;;;;;;;4.80;3.70;;;25.40;53.00;;;;;;5033946;28;20451;-58
2022/10/28 12:14:10;;;;;;;6.20;3.20;;;25.00;53.80;;;;;;5042838;28;20566;-59
2022/10/28 12:16:53;;;;;;;4.90;2.70;;;24.40;53.50;;;;;;5049830;28;20482;-59
2022/10/28 12:19:28;;;;;;;8.60;3.20;;;24.10;54.20;;;;;;5041050;28;20504;-59
2022/10/28 12:22:04;;;;;;;6.27;3.50;;;23.80;54.20;;;;;;5044766;28;20430;-59
2022/10/28 12:24:34;;;;;;;7.10;3.30;;;23.90;54.50;;;;;;5046023;28;20938;-58
2022/10/28 12:27:05;;;;;;;4.27;3.20;;;24.00;53.80;;;;;;5046795;28;20436;-58
2022/10/28 12:29:36;;;;;;;3.70;2.93;;;24.20;53.20;;;;;;5046143;28;20442;-58
2022/10/28 12:32:33;;;;;;;6.93;3.20;;;24.30;52.20;;;;;;5042476;28;20497;-59
2022/10/28 12:35:05;;;;;;;5.03;3.10;;;24.60;50.70;;;;;;5026947;28;20486;-59
2022/10/28 12:37:37;;;;;;;7.63;2.73;;;24.90;50.60;;;;;;5029240;28;20519;-59
2022/10/28 12:40:05;;;;;;;7.03;2.93;;;25.20;51.10;;;;;;5031228;28;20502;-59
2022/10/28 12:42:35;;;;;;;3.77;2.40;;;25.50;51.80;;;;;;5039684;28;20468;-59
2022/10/28 12:45:08;;;;;;;8.43;3.43;;;25.70;50.70;;;;;;5013666;28;20916;-59
2022/10/28 12:47:37;;;;;;;6.60;2.80;;;25.90;49.70;;;;;;5044350;28;20465;-59
2022/10/28 12:50:26;;;;;;;10.17;2.67;;;26.00;49.40;;;;;;5042654;28;20522;-59
2022/10/28 12:53:00;;;;;;;4.63;2.77;;;26.20;49.20;;;;;;5047735;28;21295;-59
2022/10/28 12:55:43;;;;;;;6.23;3.33;;;26.30;49.90;;;;;;5044871;28;20458;-57
2022/10/28 12:58:14;;;;;;;5.93;2.90;;;26.40;49.70;;;;;;5034316;28;20444;-56
2022/10/28 13:00:44;;;;;;;6.03;3.10;;;26.50;49.00;;;;;;5044275;28;20958;-56
2022/10/28 13:03:14;;;;;;;4.67;2.90;;;26.70;48.30;;;;;;5040341;28;20810;-56
2022/10/28 13:06:07;;;;;;;6.73;2.50;;;26.90;47.70;;;;;;5028251;28;20995;-56